createdAt,value
2018-01-16T00:00:09.699Z,1.60
2018-01-16T00:02:39.283Z,1.70
2018-01-16T00:05:09.106Z,1.70
2018-01-16T00:07:38.930Z,1.60
2018-01-16T00:10:08.754Z,1.60
2018-01-16T00:12:40.033Z,1.60
2018-01-16T00:15:09.825Z,1.60
2018-01-16T00:17:40.374Z,1.50
2018-01-16T00:20:09.882Z,1.40
2018-01-16T00:22:42.109Z,1.40
2018-01-16T00:25:11.884Z,1.40
2018-01-16T00:27:41.717Z,1.30
2018-01-16T00:30:11.602Z,1.20
2018-01-16T00:32:41.401Z,1.20
2018-01-16T00:35:11.947Z,1.20
2018-01-16T00:37:41.748Z,1.20
2018-01-16T00:40:11.764Z,1.30
2018-01-16T00:42:41.627Z,1.30
2018-01-16T00:45:11.417Z,1.30
2018-01-16T00:47:41.226Z,1.30
2018-01-16T00:50:11.022Z,1.30
2018-01-16T00:52:40.839Z,1.30
2018-01-16T00:55:10.850Z,1.20
2018-01-16T00:57:40.856Z,1.30
2018-01-16T01:00:10.308Z,1.30
2018-01-16T01:02:40.415Z,1.30
2018-01-16T01:05:10.233Z,1.30
2018-01-16T01:07:40.226Z,1.20
2018-01-16T01:10:10.002Z,1.10
2018-01-16T01:12:40.619Z,1.10
2018-01-16T01:15:10.416Z,1.10
2018-01-16T01:17:40.297Z,1.00
2018-01-16T01:20:10.062Z,1.00
2018-01-16T01:22:39.908Z,1.00
2018-01-16T01:25:10.461Z,0.90
2018-01-16T01:27:40.386Z,0.90
2018-01-16T01:30:10.165Z,0.90
2018-01-16T01:32:40.737Z,0.90
2018-01-16T01:35:10.508Z,0.90
2018-01-16T01:37:41.103Z,0.90
2018-01-16T01:40:10.909Z,0.90
2018-01-16T01:42:40.718Z,0.90
2018-01-16T01:45:10.472Z,0.90
2018-01-16T01:47:41.228Z,1.00
2018-01-16T01:50:10.996Z,1.00
2018-01-16T01:52:41.024Z,1.00
2018-01-16T01:55:10.828Z,1.00
2018-01-16T01:57:40.655Z,1.00
2018-01-16T02:00:11.213Z,1.10
2018-01-16T02:02:41.000Z,1.00
2018-01-16T02:05:10.508Z,1.10
2018-01-16T02:07:40.549Z,1.10
2018-01-16T02:10:10.336Z,1.00
2018-01-16T02:12:40.933Z,1.10
2018-01-16T02:15:10.768Z,1.10
2018-01-16T02:17:40.635Z,1.10
2018-01-16T02:20:10.288Z,1.00
2018-01-16T02:22:40.066Z,0.90
2018-01-16T02:25:10.016Z,0.90
2018-01-16T02:27:40.654Z,0.90
2018-01-16T02:30:10.661Z,0.90
2018-01-16T02:32:40.518Z,0.90
2018-01-16T02:35:10.331Z,0.90
2018-01-16T02:37:40.653Z,0.80
2018-01-16T02:40:10.469Z,0.80
2018-01-16T02:42:40.273Z,0.80
2018-01-16T02:45:09.600Z,0.80
2018-01-16T02:47:39.185Z,0.80
2018-01-16T02:50:08.836Z,0.80
2018-01-16T02:52:38.439Z,0.80
2018-01-16T02:55:08.090Z,0.80
2018-01-16T02:57:38.650Z,0.80
2018-01-16T03:00:08.125Z,0.80
2018-01-16T03:02:38.171Z,0.80
2018-01-16T03:05:07.954Z,0.80
2018-01-16T03:07:37.772Z,0.80
2018-01-16T03:10:07.560Z,0.80
2018-01-16T03:12:37.320Z,0.80
2018-01-16T03:15:07.117Z,0.80
2018-01-16T03:17:36.960Z,0.80
2018-01-16T03:20:06.735Z,0.90
2018-01-16T03:22:37.328Z,1.00
2018-01-16T03:25:07.104Z,1.00
2018-01-16T03:27:37.724Z,1.00
2018-01-16T03:30:07.503Z,1.00
2018-01-16T03:32:37.309Z,1.00
2018-01-16T03:35:07.124Z,1.10
2018-01-16T03:37:36.919Z,1.00
2018-01-16T03:40:06.719Z,1.10
2018-01-16T03:42:36.506Z,1.00
2018-01-16T03:45:06.303Z,1.00
2018-01-16T03:47:36.088Z,1.00
2018-01-16T03:50:06.130Z,1.00
2018-01-16T03:52:36.665Z,1.00
2018-01-16T03:55:07.220Z,1.10
2018-01-16T03:57:37.048Z,1.00
2018-01-16T04:00:06.877Z,1.00
2018-01-16T04:02:36.665Z,1.00
2018-01-16T04:05:06.639Z,1.00
2018-01-16T04:07:37.487Z,0.90
2018-01-16T04:10:07.312Z,0.90
2018-01-16T04:12:37.328Z,0.90
2018-01-16T04:15:07.259Z,0.90
2018-01-16T04:17:37.089Z,0.90
2018-01-16T04:20:06.884Z,1.00
2018-01-16T04:22:36.724Z,1.00
2018-01-16T04:25:06.521Z,1.10
2018-01-16T04:27:36.390Z,1.10
2018-01-16T04:30:07.037Z,1.10
2018-01-16T04:32:37.595Z,1.20
2018-01-16T04:35:07.432Z,1.10
2018-01-16T04:37:37.213Z,1.20
2018-01-16T04:40:07.041Z,1.30
2018-01-16T04:42:36.822Z,1.30
2018-01-16T04:45:07.386Z,1.40
2018-01-16T04:47:37.854Z,1.40
2018-01-16T04:50:08.420Z,1.50
2018-01-16T04:52:38.242Z,1.40
2018-01-16T04:55:08.028Z,1.50
2018-01-16T04:57:39.184Z,1.60
2018-01-16T05:00:08.624Z,1.60
2018-01-16T05:02:38.432Z,1.60
2018-01-16T05:05:08.213Z,1.70
2018-01-16T05:07:38.130Z,1.70
2018-01-16T05:10:07.959Z,1.70
2018-01-16T05:12:37.740Z,1.80
2018-01-16T05:15:07.556Z,1.80
2018-01-16T05:17:38.112Z,1.80
2018-01-16T05:20:08.664Z,1.80
2018-01-16T05:22:38.472Z,1.80
2018-01-16T05:25:08.569Z,1.80
2018-01-16T05:27:38.134Z,1.90
2018-01-16T05:30:08.128Z,1.90
2018-01-16T05:32:37.892Z,1.90
2018-01-16T05:35:07.704Z,2.00
2018-01-16T05:37:37.533Z,2.00
2018-01-16T05:40:07.328Z,2.00
2018-01-16T05:42:36.940Z,2.10
2018-01-16T05:45:06.716Z,2.10
2018-01-16T05:47:36.533Z,2.10
2018-01-16T05:50:07.096Z,2.10
2018-01-16T05:52:36.708Z,2.10
2018-01-16T05:55:06.531Z,2.20
2018-01-16T05:57:36.294Z,2.20
2018-01-16T06:00:06.881Z,2.20
2018-01-16T06:02:36.665Z,2.20
2018-01-16T06:05:06.462Z,2.20
2018-01-16T06:07:37.012Z,2.30
2018-01-16T06:10:06.806Z,2.30
2018-01-16T06:12:37.751Z,2.40
2018-01-16T06:15:08.288Z,2.40
2018-01-16T06:17:38.908Z,2.40
2018-01-16T06:20:09.513Z,2.50
2018-01-16T06:22:39.294Z,2.40
2018-01-16T06:25:09.111Z,2.50
2018-01-16T06:27:38.920Z,2.50
2018-01-16T06:30:08.849Z,2.50
2018-01-16T06:32:38.632Z,2.40
2018-01-16T06:35:08.624Z,2.50
2018-01-16T06:37:39.183Z,2.50
2018-01-16T06:40:09.014Z,2.50
2018-01-16T06:42:38.804Z,2.50
2018-01-16T06:45:08.596Z,2.60
2018-01-16T06:47:39.190Z,2.60
2018-01-16T06:50:08.964Z,2.60
2018-01-16T06:52:38.778Z,2.60
2018-01-16T06:55:08.600Z,2.60
2018-01-16T06:57:38.709Z,2.60
2018-01-16T07:00:08.542Z,2.60
2018-01-16T07:02:38.307Z,2.60
2018-01-16T07:05:08.170Z,2.60
2018-01-16T07:07:37.957Z,2.60
2018-01-16T07:10:07.794Z,2.50
2018-01-16T07:12:37.557Z,2.60
2018-01-16T07:15:07.518Z,2.60
2018-01-16T07:17:37.672Z,2.60
2018-01-16T07:20:07.483Z,2.60
2018-01-16T07:22:37.768Z,2.60
2018-01-16T07:25:07.579Z,2.60
2018-01-16T07:27:37.628Z,2.70
2018-01-16T07:30:07.467Z,2.70
2018-01-16T07:32:37.387Z,2.80
2018-01-16T07:35:07.194Z,2.80
2018-01-16T07:37:37.007Z,2.90
2018-01-16T07:40:07.040Z,3.00
2018-01-16T07:42:38.046Z,3.00
2018-01-16T07:45:07.776Z,3.10
2018-01-16T07:47:38.209Z,3.10
2018-01-16T07:50:07.652Z,3.20
2018-01-16T07:52:37.504Z,3.20
2018-01-16T07:55:08.056Z,3.30
2018-01-16T07:57:37.877Z,3.30
2018-01-16T08:00:07.664Z,3.30
2018-01-16T08:02:37.745Z,3.30
2018-01-16T08:05:07.543Z,3.30
2018-01-16T08:07:38.017Z,3.30
2018-01-16T08:10:07.830Z,3.40
2018-01-16T08:12:38.395Z,3.50
2018-01-16T08:15:08.200Z,3.40
2018-01-16T08:17:37.793Z,3.50
2018-01-16T08:20:07.608Z,3.50
2018-01-16T08:22:37.424Z,3.50
2018-01-16T08:25:07.252Z,3.50
2018-01-16T08:27:37.033Z,3.50
2018-01-16T08:30:07.613Z,3.60
2018-01-16T08:32:37.385Z,3.60
2018-01-16T08:35:07.167Z,3.80
2018-01-16T08:37:36.951Z,3.90
2018-01-16T08:40:06.756Z,4.00
2018-01-16T08:42:36.292Z,3.80
2018-01-16T08:45:06.076Z,3.80
2018-01-16T08:47:35.852Z,3.80
2018-01-16T08:50:06.364Z,3.60
2018-01-16T08:52:36.945Z,3.60
2018-01-16T08:55:06.721Z,3.60
2018-01-16T08:57:36.584Z,3.70
2018-01-16T09:00:07.277Z,3.90
2018-01-16T09:02:37.076Z,4.00
2018-01-16T09:05:07.664Z,4.10
2018-01-16T09:07:38.136Z,4.10
2018-01-16T09:10:07.937Z,4.00
2018-01-16T09:12:37.704Z,4.00
2018-01-16T09:15:07.518Z,4.00
2018-01-16T09:17:37.332Z,4.10
2018-01-16T09:20:07.113Z,4.30
2018-01-16T09:22:36.976Z,4.40
2018-01-16T09:25:08.259Z,4.30
2018-01-16T09:27:39.302Z,4.40
2018-01-16T09:30:09.110Z,4.40
2018-01-16T09:32:39.749Z,4.50
2018-01-16T09:35:09.541Z,4.40
2018-01-16T09:37:39.296Z,4.50
2018-01-16T09:40:09.130Z,4.60
2018-01-16T09:42:39.032Z,4.70
2018-01-16T09:45:08.880Z,4.70
2018-01-16T09:47:39.261Z,4.70
2018-01-16T09:50:09.806Z,4.90
2018-01-16T09:52:39.600Z,4.90
2018-01-16T09:55:10.172Z,5.00
2018-01-16T09:57:39.943Z,5.00
2018-01-16T10:00:10.524Z,5.10
2018-01-16T10:02:40.297Z,5.10
2018-01-16T10:05:10.078Z,5.10
2018-01-16T10:07:39.921Z,5.10
2018-01-16T10:10:10.692Z,5.00
2018-01-16T10:12:40.569Z,5.00
2018-01-16T10:15:10.385Z,5.00
2018-01-16T10:17:40.196Z,4.90
2018-01-16T10:20:09.951Z,4.90
2018-01-16T10:22:39.765Z,4.90
2018-01-16T10:25:09.521Z,4.90
2018-01-16T10:27:40.737Z,5.10
2018-01-16T10:30:10.568Z,5.10
2018-01-16T10:32:41.178Z,5.20
2018-01-16T10:35:11.040Z,5.20
2018-01-16T10:37:40.824Z,5.30
2018-01-16T10:40:12.112Z,5.20
2018-01-16T10:42:41.936Z,5.20
2018-01-16T10:45:11.737Z,5.20
2018-01-16T10:47:41.601Z,5.10
2018-01-16T10:50:11.193Z,5.10
2018-01-16T10:52:40.976Z,5.10
2018-01-16T10:55:10.765Z,5.20
2018-01-16T10:57:40.433Z,5.20
2018-01-16T11:00:10.302Z,5.20
2018-01-16T11:02:40.088Z,5.30
2018-01-16T11:05:10.721Z,5.40
2018-01-16T11:07:41.325Z,5.80
2018-01-16T11:10:11.097Z,5.80
2018-01-16T11:12:40.881Z,6.10
2018-01-16T11:15:11.410Z,6.20
2018-01-16T11:17:41.200Z,6.10
2018-01-16T11:20:11.755Z,5.90
2018-01-16T11:22:41.611Z,5.90
2018-01-16T11:25:11.419Z,5.90
2018-01-16T11:27:41.237Z,5.90
2018-01-16T11:30:11.050Z,5.80
2018-01-16T11:32:40.891Z,5.70
2018-01-16T11:35:11.312Z,5.90
2018-01-16T11:37:41.129Z,5.90
2018-01-16T11:40:10.945Z,6.00
2018-01-16T11:42:41.492Z,6.10
2018-01-16T11:45:12.100Z,6.00
2018-01-16T11:47:41.873Z,6.00
2018-01-16T11:50:11.472Z,5.90
2018-01-16T11:52:41.244Z,5.80
2018-01-16T11:55:11.071Z,5.80
2018-01-16T11:57:47.174Z,5.80
2018-01-16T12:00:19.969Z,5.80
2018-01-16T12:02:56.263Z,6.20
2018-01-16T12:05:29.371Z,6.20
2018-01-16T12:08:00.936Z,6.40
2018-01-16T12:10:31.270Z,6.10
2018-01-16T12:13:01.088Z,5.90
2018-01-16T12:15:30.845Z,5.90
2018-01-16T12:18:00.648Z,5.90
2018-01-16T12:20:31.792Z,5.80
2018-01-16T12:23:01.628Z,6.00
2018-01-16T12:25:31.844Z,6.40
2018-01-16T12:28:04.624Z,6.80
2018-01-16T12:30:34.457Z,7.70
2018-01-16T12:33:04.236Z,8.60
2018-01-16T12:35:34.188Z,8.80
2018-01-16T12:38:03.647Z,9.10
2018-01-16T12:40:33.548Z,8.80
2018-01-16T12:43:03.369Z,8.40
2018-01-16T12:45:33.318Z,8.00
2018-01-16T12:48:03.418Z,7.90
2018-01-16T12:50:33.210Z,7.70
2018-01-16T12:53:03.060Z,7.20
2018-01-16T12:55:32.867Z,6.70
2018-01-16T12:58:02.648Z,6.40
2018-01-16T13:00:33.208Z,6.30
2018-01-16T13:03:02.988Z,6.30
2018-01-16T13:05:33.554Z,6.70
2018-01-16T13:08:03.359Z,6.70
2018-01-16T13:10:32.863Z,7.10
2018-01-16T13:13:02.878Z,7.10
2018-01-16T13:15:33.432Z,7.40
2018-01-16T13:18:03.373Z,7.40
2018-01-16T13:20:33.226Z,7.30
2018-01-16T13:23:04.617Z,6.80
2018-01-16T13:25:34.405Z,6.80
2018-01-16T13:28:05.037Z,6.70
2018-01-16T13:30:35.581Z,6.70
2018-01-16T13:33:05.408Z,6.60
2018-01-16T13:35:35.163Z,6.60
2018-01-16T13:38:04.959Z,6.60
2018-01-16T13:40:34.782Z,6.40
2018-01-16T13:43:04.601Z,6.40
2018-01-16T13:45:34.397Z,6.40
2018-01-16T13:48:04.163Z,6.30
2018-01-16T13:50:34.728Z,6.20
2018-01-16T13:53:04.481Z,6.20
2018-01-16T13:55:34.284Z,6.10
2018-01-16T13:58:03.804Z,6.10
2018-01-16T14:00:34.354Z,6.10
2018-01-16T14:03:03.994Z,6.10
2018-01-16T14:05:33.777Z,6.10
2018-01-16T14:08:03.579Z,6.10
2018-01-16T14:10:34.146Z,6.10
2018-01-16T14:13:03.941Z,6.00
2018-01-16T14:15:33.759Z,6.00
2018-01-16T14:18:03.529Z,5.90
2018-01-16T14:20:35.309Z,5.80
2018-01-16T14:23:06.078Z,5.80
2018-01-16T14:25:35.900Z,5.80
2018-01-16T14:28:05.682Z,5.70
2018-01-16T14:30:35.474Z,5.70
2018-01-16T14:33:06.062Z,5.60
2018-01-16T14:35:35.874Z,5.60
2018-01-16T14:38:05.664Z,5.60
2018-01-16T14:40:35.472Z,5.50
2018-01-16T14:43:05.258Z,5.50
2018-01-16T14:45:35.840Z,5.50
2018-01-16T14:48:05.618Z,5.50
2018-01-16T14:50:35.496Z,5.40
2018-01-16T14:53:05.247Z,5.40
2018-01-16T14:55:35.028Z,5.40
2018-01-16T14:58:05.639Z,5.40
2018-01-16T15:00:35.459Z,5.30
2018-01-16T15:03:05.276Z,5.40
2018-01-16T15:05:35.080Z,5.30
2018-01-16T15:08:04.924Z,5.30
2018-01-16T15:10:34.688Z,5.30
2018-01-16T15:13:04.506Z,5.30
2018-01-16T15:15:34.331Z,5.30
2018-01-16T15:18:04.136Z,5.20
2018-01-16T15:20:34.059Z,5.10
2018-01-16T15:23:03.856Z,5.10
2018-01-16T15:25:33.650Z,5.10
2018-01-16T15:28:03.474Z,5.00
2018-01-16T15:30:33.353Z,5.00
2018-01-16T15:33:03.241Z,5.00
2018-01-16T15:35:33.312Z,5.00
2018-01-16T15:38:03.144Z,5.00
2018-01-16T15:40:32.937Z,5.00
2018-01-16T15:43:02.757Z,4.90
2018-01-16T15:45:32.587Z,4.90
2018-01-16T15:48:02.605Z,4.80
2018-01-16T15:50:33.332Z,4.80
2018-01-16T15:53:03.211Z,4.80
2018-01-16T15:55:33.018Z,4.80
2018-01-16T15:58:02.831Z,4.80
2018-01-16T16:00:32.746Z,4.80
2018-01-16T16:03:02.537Z,4.80
2018-01-16T16:05:33.111Z,4.80
2018-01-16T16:08:02.905Z,4.80
2018-01-16T16:10:32.697Z,4.80
2018-01-16T16:13:03.271Z,4.80
2018-01-16T16:15:33.141Z,4.80
2018-01-16T16:18:03.672Z,4.70
2018-01-16T16:20:34.255Z,4.70
2018-01-16T16:23:04.010Z,4.70
2018-01-16T16:25:33.838Z,4.60
2018-01-16T16:28:03.682Z,4.60
2018-01-16T16:30:33.491Z,4.50
2018-01-16T16:33:03.245Z,4.40
2018-01-16T16:35:33.066Z,4.30
2018-01-16T16:38:02.860Z,4.20
2018-01-16T16:40:32.636Z,4.10
2018-01-16T16:43:02.440Z,4.10
2018-01-16T16:45:32.199Z,4.10
2018-01-16T16:48:02.024Z,4.10
2018-01-16T16:50:32.580Z,4.00
2018-01-16T16:53:02.395Z,4.00
2018-01-16T16:55:32.151Z,4.00
2018-01-16T16:58:01.936Z,3.90
2018-01-16T17:00:31.729Z,3.80
2018-01-16T17:03:02.260Z,3.80
2018-01-16T17:05:32.817Z,3.70
2018-01-16T17:08:02.603Z,3.70
2018-01-16T17:10:32.423Z,3.60
2018-01-16T17:13:02.269Z,3.60
2018-01-16T17:15:32.032Z,3.50
2018-01-16T17:18:02.590Z,3.50
2018-01-16T17:20:32.413Z,3.50
2018-01-16T17:23:02.188Z,3.40
2018-01-16T17:25:32.760Z,3.40
2018-01-16T17:28:02.597Z,3.40
2018-01-16T17:30:32.361Z,3.30
2018-01-16T17:33:02.266Z,3.30
2018-01-16T17:35:32.096Z,3.20
2018-01-16T17:38:01.898Z,3.20
2018-01-16T17:40:32.340Z,3.30
2018-01-16T17:43:02.132Z,3.30
2018-01-16T17:45:32.382Z,3.30
2018-01-16T17:48:02.180Z,3.30
2018-01-16T17:50:31.666Z,3.30
2018-01-16T17:53:02.184Z,3.40
2018-01-16T17:55:32.774Z,3.40
2018-01-16T17:58:02.751Z,3.40
2018-01-16T18:00:32.546Z,3.40
2018-01-16T18:03:03.169Z,3.30
2018-01-16T18:05:32.953Z,3.30
2018-01-16T18:08:02.849Z,3.40
2018-01-16T18:10:32.749Z,3.40
2018-01-16T18:13:02.658Z,3.40
2018-01-16T18:15:33.351Z,3.40
2018-01-16T18:18:03.236Z,3.40
2018-01-16T18:20:33.138Z,3.40
2018-01-16T18:23:02.928Z,3.40
2018-01-16T18:25:32.785Z,3.40
2018-01-16T18:28:02.693Z,3.40
2018-01-16T18:30:32.504Z,3.40
2018-01-16T18:33:02.340Z,3.40
2018-01-16T18:35:32.194Z,3.40
2018-01-16T18:38:02.028Z,3.40
2018-01-16T18:40:32.012Z,3.40
2018-01-16T18:43:02.762Z,3.40
2018-01-16T18:45:32.802Z,3.30
2018-01-16T18:48:03.429Z,3.30
2018-01-16T18:50:33.299Z,3.20
2018-01-16T18:53:03.142Z,3.20
2018-01-16T18:55:32.972Z,3.20
2018-01-16T18:58:02.741Z,3.10
2018-01-16T19:00:33.296Z,3.10
2018-01-16T19:03:03.079Z,3.10
2018-01-16T19:05:33.716Z,3.00
2018-01-16T19:08:06.419Z,3.00
2018-01-16T19:10:38.432Z,3.00
2018-01-16T19:13:08.449Z,3.00
2018-01-16T19:15:38.274Z,3.00
2018-01-16T19:18:08.092Z,2.90
2018-01-16T19:20:37.933Z,2.90
2018-01-16T19:23:07.829Z,2.90
2018-01-16T19:25:37.733Z,2.90
2018-01-16T19:28:07.516Z,2.90
2018-01-16T19:30:37.378Z,2.90
2018-01-16T19:33:07.175Z,2.90
2018-01-16T19:35:37.004Z,3.00
2018-01-16T19:38:07.290Z,3.00
2018-01-16T19:40:38.211Z,3.00
2018-01-16T19:43:10.216Z,3.00
2018-01-16T19:45:41.487Z,3.10
2018-01-16T19:48:14.079Z,3.10
2018-01-16T19:50:44.636Z,3.10
2018-01-16T19:53:14.485Z,3.10
2018-01-16T19:55:44.316Z,3.10
2018-01-16T19:58:14.129Z,3.10
2018-01-16T20:00:44.080Z,3.20
2018-01-16T20:03:14.072Z,3.20
2018-01-16T20:05:43.919Z,3.20
2018-01-16T20:08:14.111Z,3.20
2018-01-16T20:10:44.311Z,3.10
2018-01-16T20:13:14.900Z,3.10
2018-01-16T20:15:44.816Z,3.10
2018-01-16T20:18:14.722Z,3.10
2018-01-16T20:20:44.524Z,3.10
2018-01-16T20:23:14.114Z,3.00
2018-01-16T20:25:43.900Z,3.00
2018-01-16T20:28:13.762Z,3.00
2018-01-16T20:30:43.954Z,3.00
2018-01-16T20:33:13.783Z,3.10
2018-01-16T20:35:43.590Z,3.10
2018-01-16T20:38:13.476Z,3.10
2018-01-16T20:40:44.113Z,3.10
2018-01-16T20:43:13.975Z,3.10
2018-01-16T20:45:48.211Z,3.10
2018-01-16T20:48:18.715Z,3.00
2018-01-16T20:50:48.932Z,3.00
2018-01-16T20:53:19.373Z,3.00
2018-01-16T20:55:49.228Z,3.00
2018-01-16T20:58:19.810Z,3.00
2018-01-16T21:00:49.641Z,2.90
2018-01-16T21:03:19.416Z,3.00
2018-01-16T21:05:59.754Z,3.00
2018-01-16T21:08:31.144Z,2.90
2018-01-16T21:11:00.951Z,2.90
2018-01-16T21:13:30.841Z,2.90
2018-01-16T21:16:01.507Z,2.90
2018-01-16T21:18:31.331Z,2.90
2018-01-16T21:21:01.272Z,2.90
2018-01-16T21:23:31.072Z,2.90
2018-01-16T21:26:01.082Z,2.90
2018-01-16T21:28:31.646Z,2.90
2018-01-16T21:31:01.460Z,2.90
2018-01-16T21:33:32.514Z,2.90
2018-01-16T21:36:03.079Z,2.90
2018-01-16T21:38:32.688Z,2.90
2018-01-16T21:41:02.501Z,2.90
2018-01-16T21:43:32.325Z,2.90
2018-01-16T21:46:02.262Z,2.90
2018-01-16T21:48:32.060Z,2.90
2018-01-16T21:51:01.849Z,3.00
2018-01-16T21:53:31.685Z,3.00
2018-01-16T21:56:02.326Z,3.00
2018-01-16T21:58:32.155Z,3.00
2018-01-16T22:01:02.016Z,3.00
2018-01-16T22:03:31.975Z,3.00
2018-01-16T22:06:02.593Z,2.90
2018-01-16T22:08:32.521Z,2.90
2018-01-16T22:11:02.338Z,2.90
2018-01-16T22:13:32.115Z,2.90
2018-01-16T22:16:01.938Z,2.90
2018-01-16T22:18:31.709Z,2.90
2018-01-16T22:21:02.287Z,2.80
2018-01-16T22:23:32.090Z,2.80
2018-01-16T22:26:01.962Z,2.80
2018-01-16T22:28:32.264Z,2.70
2018-01-16T22:31:02.918Z,2.70
2018-01-16T22:33:33.484Z,2.70
2018-01-16T22:36:03.283Z,2.70
2018-01-16T22:38:33.066Z,2.70
2018-01-16T22:41:03.638Z,2.60
2018-01-16T22:43:33.388Z,2.60
2018-01-16T22:46:03.206Z,2.60
2018-01-16T22:48:32.980Z,2.70
2018-01-16T22:51:02.689Z,2.70
2018-01-16T22:53:32.472Z,2.80
2018-01-16T22:56:02.460Z,2.80
2018-01-16T22:58:32.243Z,2.80
2018-01-16T23:01:02.076Z,2.90
2018-01-16T23:03:31.596Z,2.90
2018-01-16T23:06:01.383Z,2.90
2018-01-16T23:08:31.197Z,2.90
2018-01-16T23:11:00.999Z,2.90
2018-01-16T23:13:30.802Z,2.90
2018-01-16T23:16:00.620Z,2.90
2018-01-16T23:18:30.418Z,2.90
2018-01-16T23:21:01.040Z,2.80
2018-01-16T23:23:31.572Z,2.70
2018-01-16T23:26:02.176Z,2.70
2018-01-16T23:28:32.320Z,2.70
2018-01-16T23:31:02.893Z,2.60
2018-01-16T23:33:32.673Z,2.60
2018-01-16T23:36:03.261Z,2.50
2018-01-16T23:38:33.080Z,2.40
2018-01-16T23:41:03.675Z,2.40
2018-01-16T23:43:33.508Z,2.40
2018-01-16T23:46:03.720Z,2.40
2018-01-16T23:48:33.549Z,2.40
2018-01-16T23:51:03.333Z,2.30
2018-01-16T23:53:33.151Z,2.30
2018-01-16T23:56:02.920Z,2.30
2018-01-16T23:58:32.925Z,2.30
